Time;durP1;ratioP1;P1;durP2;ratioP2;P2;SDS_P1;SDS_P2;PMS_P1;PMS_P2;Temp;Humidity;BMP_temperature;BMP_pressure;BME280_temperature;BME280_humidity;BME280_pressure;Samples;Min_cycle;Max_cycle;Signal;HPM_P1;HPM_P2
2021/01/02 00:01:17;;;;;;;11.47;6.90;;;1.00;99.90;;;;;;5027556;28;21224;-62
2021/01/02 00:04:07;;;;;;;10.50;7.33;;;1.00;99.90;;;;;;5026438;28;20509;-62
2021/01/02 00:06:51;;;;;;;11.27;6.67;;;1.00;99.90;;;;;;5021141;28;20531;-63
2021/01/02 00:09:20;;;;;;;10.03;6.00;;;1.00;99.90;;;;;;5029317;28;20446;-62
2021/01/02 00:11:58;;;;;;;10.43;6.93;;;1.00;99.90;;;;;;5030736;28;20426;-63
2021/01/02 00:15:12;;;;;;;11.30;6.60;;;1.00;99.90;;;;;;5023710;28;20458;-62
2021/01/02 00:18:00;;;;;;;10.70;6.70;;;1.00;99.90;;;;;;5024630;28;21008;-62
2021/01/02 00:20:47;;;;;;;9.70;6.07;;;1.00;99.90;;;;;;5031979;28;20482;-61
2021/01/02 00:23:32;;;;;;;10.17;5.67;;;1.10;99.90;;;;;;5024974;28;20427;-62
2021/01/02 00:26:09;;;;;;;10.93;6.30;;;1.10;99.90;;;;;;5015159;28;20436;-62
2021/01/02 00:28:39;;;;;;;10.30;7.30;;;1.10;99.90;;;;;;5019030;28;20452;-62
2021/01/02 00:31:36;;;;;;;10.73;6.80;;;1.10;99.90;;;;;;5037381;28;20427;-62
2021/01/02 00:34:23;;;;;;;10.97;6.70;;;1.10;99.90;;;;;;5027862;28;20510;-62
2021/01/02 00:37:02;;;;;;;10.23;5.70;;;1.10;99.90;;;;;;5025391;28;20424;-63
2021/01/02 00:39:54;;;;;;;11.87;6.90;;;1.10;99.90;;;;;;5024323;28;21308;-64
2021/01/02 00:42:21;;;;;;;12.60;7.40;;;1.10;99.90;;;;;;5025499;28;20529;-62
2021/01/02 00:44:48;;;;;;;11.27;7.03;;;1.10;99.90;;;;;;5024820;28;20444;-62
2021/01/02 00:47:15;;;;;;;10.50;6.70;;;1.10;99.90;;;;;;5026155;28;20430;-61
2021/01/02 00:49:47;;;;;;;12.13;7.17;;;1.10;99.90;;;;;;5021095;28;20464;-62
2021/01/02 00:52:44;;;;;;;13.30;6.60;;;1.10;99.90;;;;;;5025638;28;20550;-61
2021/01/02 00:55:10;;;;;;;8.73;5.73;;;1.10;99.90;;;;;;5028280;28;20728;-61
2021/01/02 00:57:36;;;;;;;7.73;5.07;;;1.10;99.90;;;;;;5028552;28;20434;-61
2021/01/02 01:00:04;;;;;;;9.27;5.70;;;1.10;99.90;;;;;;5036808;28;20919;-64
2021/01/02 01:02:55;;;;;;;10.27;5.53;;;1.10;99.90;;;;;;5031226;28;20261;-61
2021/01/02 01:05:21;;;;;;;10.07;6.30;;;1.10;99.90;;;;;;5025025;28;20440;-62
2021/01/02 01:07:54;;;;;;;8.07;5.87;;;1.10;99.90;;;;;;5030272;28;20422;-63
2021/01/02 01:10:28;;;;;;;7.40;4.87;;;1.10;99.90;;;;;;5043338;28;20462;-61
2021/01/02 01:12:58;;;;;;;9.60;5.57;;;1.10;99.90;;;;;;5030214;28;20440;-62
2021/01/02 01:15:24;;;;;;;10.83;5.57;;;1.10;99.90;;;;;;5030882;28;20460;-63
2021/01/02 01:18:17;;;;;;;8.67;5.17;;;1.10;99.90;;;;;;5031220;28;20470;-62
2021/01/02 01:20:46;;;;;;;7.03;5.00;;;1.00;99.90;;;;;;5028217;28;20182;-63
2021/01/02 01:23:40;;;;;;;8.27;5.17;;;1.10;99.90;;;;;;5036889;28;20429;-63
2021/01/02 01:26:30;;;;;;;7.20;4.73;;;1.10;99.90;;;;;;5029112;28;20439;-62
2021/01/02 01:29:01;;;;;;;7.37;5.10;;;1.00;99.90;;;;;;5029318;28;20833;-61
2021/01/02 01:31:46;;;;;;;7.30;5.27;;;1.00;99.90;;;;;;5030117;28;20523;-64
2021/01/02 01:34:21;;;;;;;9.40;5.00;;;1.00;99.90;;;;;;5031574;28;20496;-62
2021/01/02 01:36:49;;;;;;;12.47;6.20;;;1.00;99.90;;;;;;5035906;28;20424;-64
2021/01/02 01:39:15;;;;;;;6.30;4.40;;;0.90;99.90;;;;;;5025149;28;20462;-62
2021/01/02 01:41:45;;;;;;;8.70;5.40;;;0.90;99.90;;;;;;5028546;28;20511;-69
2021/01/02 01:44:10;;;;;;;10.40;5.10;;;0.90;99.90;;;;;;5026250;28;20432;-65
2021/01/02 01:46:48;;;;;;;8.73;4.83;;;0.90;99.90;;;;;;5022431;28;20969;-64
2021/01/02 01:49:40;;;;;;;8.50;5.07;;;0.90;99.90;;;;;;5028299;28;20436;-62
2021/01/02 01:52:29;;;;;;;7.60;5.07;;;0.90;99.90;;;;;;5025456;28;20421;-65
2021/01/02 01:55:09;;;;;;;7.60;5.00;;;0.80;99.90;;;;;;5023698;28;20455;-65
2021/01/02 01:57:39;;;;;;;8.17;5.73;;;0.90;99.90;;;;;;5025895;28;20873;-63
2021/01/02 02:00:11;;;;;;;8.60;5.73;;;0.90;99.90;;;;;;5027871;28;20807;-64
2021/01/02 02:02:42;;;;;;;10.80;6.53;;;0.90;99.90;;;;;;5026119;28;20415;-63
2021/01/02 02:05:09;;;;;;;10.43;6.07;;;0.90;99.90;;;;;;5027541;28;20495;-62
2021/01/02 02:08:04;;;;;;;10.57;5.93;;;0.90;99.90;;;;;;5024752;28;20936;-64
2021/01/02 02:10:36;;;;;;;8.93;6.00;;;0.90;99.90;;;;;;5027051;28;20497;-61
2021/01/02 02:13:12;;;;;;;10.90;6.50;;;0.90;99.90;;;;;;5023703;28;20439;-62
2021/01/02 02:15:52;;;;;;;11.80;5.67;;;0.90;99.90;;;;;;5025476;28;20454;-64
2021/01/02 02:18:22;;;;;;;9.60;5.57;;;0.80;99.90;;;;;;5036054;28;20467;-63
2021/01/02 02:20:52;;;;;;;12.50;5.47;;;0.80;99.90;;;;;;5033005;28;20483;-62
2021/01/02 02:23:26;;;;;;;12.80;6.63;;;0.90;99.90;;;;;;5025621;28;20437;-62
2021/01/02 02:26:16;;;;;;;8.60;5.83;;;0.90;99.90;;;;;;5025785;28;20483;-63
2021/01/02 02:29:22;;;;;;;9.67;6.00;;;0.90;99.90;;;;;;5030721;28;21091;-62
2021/01/02 02:31:48;;;;;;;9.87;6.13;;;0.80;99.90;;;;;;5025232;28;20420;-64
2021/01/02 02:34:15;;;;;;;10.80;6.03;;;0.80;99.90;;;;;;5023089;28;20475;-64
2021/01/02 02:36:42;;;;;;;11.80;6.83;;;0.80;99.90;;;;;;5041118;28;20416;-61
2021/01/02 02:39:12;;;;;;;10.50;6.27;;;0.80;99.90;;;;;;5028004;28;21202;-61
2021/01/02 02:41:47;;;;;;;9.67;6.30;;;0.80;99.90;;;;;;5020728;28;20431;-66
2021/01/02 02:44:17;;;;;;;12.37;6.20;;;0.80;99.90;;;;;;5018510;28;20431;-65
2021/01/02 02:46:45;;;;;;;8.60;6.13;;;0.80;99.90;;;;;;5019122;28;20490;-63
2021/01/02 02:49:16;;;;;;;10.97;6.50;;;0.80;99.90;;;;;;5026649;28;20502;-63
2021/01/02 02:51:46;;;;;;;10.17;6.67;;;0.90;99.90;;;;;;5032112;28;20507;-64
2021/01/02 02:54:12;;;;;;;10.90;6.93;;;0.90;99.90;;;;;;5046434;23;20725;-59
2021/01/02 02:56:37;;;;;;;11.73;6.93;;;0.80;99.90;;;;;;5031747;28;20439;-60
2021/01/02 02:59:04;;;;;;;11.47;5.90;;;0.80;99.90;;;;;;5034157;28;20190;-60
2021/01/02 03:01:31;;;;;;;13.53;6.53;;;0.80;99.90;;;;;;5024059;28;20587;-59
2021/01/02 03:03:57;;;;;;;12.83;6.40;;;0.80;99.90;;;;;;5027096;28;20497;-60
2021/01/02 03:06:23;;;;;;;12.30;6.87;;;0.80;99.90;;;;;;5027860;28;20428;-59
2021/01/02 03:08:53;;;;;;;12.63;6.93;;;0.80;99.90;;;;;;5027539;28;20175;-59
2021/01/02 03:11:26;;;;;;;13.37;7.57;;;0.80;99.90;;;;;;5025477;28;20408;-60
2021/01/02 03:13:52;;;;;;;13.53;7.43;;;0.80;99.90;;;;;;5010925;28;21330;-60
2021/01/02 03:16:21;;;;;;;13.27;6.57;;;0.80;99.90;;;;;;5013902;28;20499;-59
2021/01/02 03:18:47;;;;;;;13.87;6.60;;;0.80;99.90;;;;;;5024766;28;20503;-60
2021/01/02 03:21:13;;;;;;;12.60;7.40;;;0.80;99.90;;;;;;5025888;28;20512;-60
2021/01/02 03:23:47;;;;;;;10.33;6.50;;;0.80;99.90;;;;;;5023012;28;20285;-60
2021/01/02 03:26:14;;;;;;;12.13;6.70;;;0.90;99.90;;;;;;5025693;28;20471;-60
2021/01/02 03:28:51;;;;;;;13.17;7.27;;;0.90;99.90;;;;;;5027319;28;20970;-60
2021/01/02 03:31:17;;;;;;;12.27;7.10;;;0.90;99.90;;;;;;5023730;28;20432;-60
2021/01/02 03:33:43;;;;;;;11.07;6.13;;;0.90;99.90;;;;;;5025877;28;20477;-63
2021/01/02 03:36:09;;;;;;;14.97;7.60;;;0.90;99.90;;;;;;5028767;28;21021;-59
2021/01/02 03:38:35;;;;;;;11.87;7.10;;;0.90;99.90;;;;;;5030348;28;20235;-60
2021/01/02 03:41:01;;;;;;;11.30;7.13;;;0.90;99.90;;;;;;5017377;28;20886;-59
2021/01/02 03:43:27;;;;;;;11.50;5.90;;;0.90;99.90;;;;;;5022979;28;20512;-60
2021/01/02 03:45:53;;;;;;;11.83;7.00;;;0.90;99.90;;;;;;5032094;28;20223;-59
2021/01/02 03:48:19;;;;;;;14.33;7.00;;;0.90;99.90;;;;;;5027009;28;20448;-60
2021/01/02 03:50:45;;;;;;;10.03;6.90;;;1.00;99.90;;;;;;5026742;28;20680;-60
2021/01/02 03:53:11;;;;;;;11.80;6.50;;;1.00;99.90;;;;;;5030326;28;20432;-60
2021/01/02 03:55:37;;;;;;;12.07;7.00;;;0.90;99.90;;;;;;5025129;28;20298;-59
2021/01/02 03:58:03;;;;;;;12.73;7.03;;;1.00;99.90;;;;;;5027923;28;20443;-64
2021/01/02 04:00:29;;;;;;;12.53;6.80;;;0.90;99.90;;;;;;5029046;28;20974;-61
2021/01/02 04:02:55;;;;;;;14.10;6.57;;;0.90;99.90;;;;;;5026907;28;20186;-60
2021/01/02 04:05:21;;;;;;;11.40;6.83;;;0.90;99.90;;;;;;5017880;28;20464;-60
2021/01/02 04:07:46;;;;;;;14.13;7.10;;;0.90;99.90;;;;;;5036690;28;20436;-61
2021/01/02 04:10:13;;;;;;;12.33;6.40;;;0.90;99.90;;;;;;5047878;28;20245;-60
2021/01/02 04:12:39;;;;;;;11.70;6.60;;;1.00;99.90;;;;;;5036745;28;20260;-60
2021/01/02 04:15:05;;;;;;;10.13;6.50;;;1.00;99.90;;;;;;5029579;28;20476;-60
2021/01/02 04:17:31;;;;;;;11.53;6.73;;;1.00;99.90;;;;;;5031721;28;20506;-58
2021/01/02 04:19:57;;;;;;;12.07;6.70;;;1.00;99.90;;;;;;5030263;28;20530;-60
2021/01/02 04:22:22;;;;;;;10.67;6.67;;;1.00;99.90;;;;;;5029501;28;20513;-59
2021/01/02 04:24:48;;;;;;;11.13;6.77;;;1.00;99.90;;;;;;5031862;28;20328;-60
2021/01/02 04:27:14;;;;;;;11.97;7.63;;;1.00;99.90;;;;;;5030934;28;20504;-60
2021/01/02 04:29:40;;;;;;;9.93;6.00;;;1.00;99.90;;;;;;5027588;28;20189;-60
2021/01/02 04:32:06;;;;;;;11.30;6.60;;;1.00;99.90;;;;;;5030358;28;20271;-59
2021/01/02 04:34:32;;;;;;;13.10;7.07;;;1.00;99.90;;;;;;5039883;28;20193;-60
2021/01/02 04:36:57;;;;;;;8.63;5.90;;;1.00;99.90;;;;;;5057269;28;20432;-62
2021/01/02 04:39:23;;;;;;;13.27;7.80;;;1.00;99.90;;;;;;5050533;28;20170;-63
2021/01/02 04:41:48;;;;;;;13.03;7.13;;;1.00;99.90;;;;;;5037049;28;20549;-57
2021/01/02 04:44:16;;;;;;;11.50;6.87;;;1.00;99.90;;;;;;5033093;28;20229;-60
2021/01/02 04:46:44;;;;;;;12.90;7.73;;;1.00;99.90;;;;;;5035726;28;20174;-60
2021/01/02 04:49:10;;;;;;;15.30;7.27;;;1.00;99.90;;;;;;5034025;28;20766;-59
2021/01/02 04:51:36;;;;;;;12.70;7.10;;;1.00;99.90;;;;;;5035205;28;20918;-61
2021/01/02 04:54:03;;;;;;;11.60;7.17;;;1.00;99.90;;;;;;5033080;28;20776;-60
2021/01/02 04:56:34;;;;;;;13.00;7.10;;;1.00;99.90;;;;;;5034093;28;20226;-60
2021/01/02 04:59:07;;;;;;;13.03;8.30;;;1.00;99.90;;;;;;5033325;28;20961;-60
2021/01/02 05:01:37;;;;;;;12.13;7.20;;;1.00;99.90;;;;;;5044933;28;20478;-61
2021/01/02 05:04:02;;;;;;;12.80;7.70;;;1.00;99.90;;;;;;5033559;28;20432;-60
2021/01/02 05:06:28;;;;;;;13.67;7.37;;;1.00;99.90;;;;;;5034592;28;20428;-59
2021/01/02 05:08:54;;;;;;;15.03;8.37;;;1.00;99.90;;;;;;5033928;28;20173;-64
2021/01/02 05:11:20;;;;;;;11.30;6.67;;;1.00;99.90;;;;;;5029377;28;20630;-60
2021/01/02 05:13:47;;;;;;;12.43;6.70;;;1.00;99.90;;;;;;5033679;28;20577;-60
2021/01/02 05:16:21;;;;;;;12.70;7.70;;;1.00;99.90;;;;;;5034796;28;20572;-60
2021/01/02 05:18:58;;;;;;;13.10;7.13;;;0.90;99.90;;;;;;5031405;28;20433;-60
2021/01/02 05:21:28;;;;;;;10.97;6.50;;;0.90;99.90;;;;;;5033493;28;20423;-60
2021/01/02 05:24:07;;;;;;;13.27;6.87;;;0.90;99.90;;;;;;5036667;28;20520;-60
2021/01/02 05:26:35;;;;;;;10.33;6.50;;;1.00;99.90;;;;;;5023428;28;20440;-60
2021/01/02 05:29:13;;;;;;;11.97;7.50;;;0.90;99.90;;;;;;5033530;28;20440;-60
2021/01/02 05:31:40;;;;;;;12.17;6.73;;;1.00;99.90;;;;;;5014395;28;20441;-60
2021/01/02 05:34:07;;;;;;;10.50;6.60;;;0.90;99.90;;;;;;5030811;28;20432;-59
2021/01/02 05:36:33;;;;;;;11.07;6.40;;;0.90;99.90;;;;;;5032711;28;20452;-59
2021/01/02 05:39:00;;;;;;;14.73;7.03;;;0.90;99.90;;;;;;5027806;28;20512;-60
2021/01/02 05:41:27;;;;;;;13.47;7.87;;;0.90;99.90;;;;;;5032488;28;20201;-59
2021/01/02 05:44:10;;;;;;;10.97;6.20;;;0.90;99.90;;;;;;5032911;28;20444;-59
2021/01/02 05:46:43;;;;;;;10.87;6.43;;;0.90;99.90;;;;;;5032844;28;20439;-60
2021/01/02 05:49:33;;;;;;;11.50;6.90;;;0.90;99.90;;;;;;5029679;28;20523;-61
2021/01/02 05:52:01;;;;;;;11.13;5.90;;;0.90;99.90;;;;;;5017801;28;20407;-60
2021/01/02 05:54:28;;;;;;;14.00;6.77;;;0.90;99.90;;;;;;5030700;28;20814;-60
2021/01/02 05:56:56;;;;;;;12.93;6.50;;;0.90;99.90;;;;;;5028599;28;20464;-60
2021/01/02 05:59:39;;;;;;;10.33;5.93;;;1.00;99.90;;;;;;5032390;28;20751;-59
2021/01/02 06:02:24;;;;;;;10.27;6.30;;;0.90;99.90;;;;;;5030743;28;21056;-59
2021/01/02 06:05:10;;;;;;;10.10;6.13;;;1.00;99.90;;;;;;5033820;28;20444;-60
2021/01/02 06:07:56;;;;;;;10.17;5.83;;;0.90;99.90;;;;;;5019776;28;20437;-60
2021/01/02 06:10:23;;;;;;;12.47;6.20;;;0.90;99.90;;;;;;5013508;28;21020;-60
2021/01/02 06:12:48;;;;;;;8.83;5.50;;;0.90;99.90;;;;;;5032832;28;20422;-60
2021/01/02 06:15:15;;;;;;;10.67;5.97;;;0.90;99.90;;;;;;5030924;28;20510;-60
2021/01/02 06:17:48;;;;;;;10.63;6.20;;;0.90;99.90;;;;;;5032324;28;20182;-59
2021/01/02 06:20:16;;;;;;;8.80;5.87;;;1.00;99.90;;;;;;5033619;28;20792;-59
2021/01/02 06:22:42;;;;;;;10.77;6.00;;;1.00;99.90;;;;;;5032891;28;20424;-59
2021/01/02 06:25:13;;;;;;;10.90;5.97;;;1.00;99.90;;;;;;5027744;28;20608;-59
2021/01/02 06:27:40;;;;;;;9.40;5.33;;;1.00;99.70;;;;;;5017011;28;20532;-60
2021/01/02 06:30:07;;;;;;;8.47;5.17;;;1.00;99.90;;;;;;5032889;28;20516;-59
2021/01/02 06:32:33;;;;;;;11.77;5.73;;;1.00;99.90;;;;;;5031270;28;20866;-59
2021/01/02 06:35:08;;;;;;;11.63;6.33;;;1.00;99.90;;;;;;5017619;28;20461;-60
2021/01/02 06:37:49;;;;;;;9.77;5.80;;;1.00;99.90;;;;;;5019079;28;20434;-60
2021/01/02 06:40:24;;;;;;;9.77;6.07;;;1.00;99.80;;;;;;5023281;28;20512;-60
2021/01/02 06:42:53;;;;;;;10.00;5.87;;;0.90;99.70;;;;;;5020093;28;20780;-60
2021/01/02 06:45:37;;;;;;;8.20;5.80;;;0.90;99.80;;;;;;5033282;28;20437;-60
2021/01/02 06:48:20;;;;;;;7.70;5.10;;;0.90;99.80;;;;;;5029249;28;20451;-60
2021/01/02 06:50:47;;;;;;;10.47;6.07;;;0.90;99.70;;;;;;5031533;28;20507;-60
2021/01/02 06:53:33;;;;;;;9.07;5.60;;;0.90;99.60;;;;;;5032176;28;20499;-60
2021/01/02 06:56:06;;;;;;;9.47;5.53;;;0.90;99.50;;;;;;5028066;28;20455;-60
2021/01/02 06:58:37;;;;;;;8.30;5.13;;;0.80;99.50;;;;;;5023361;28;20452;-59
2021/01/02 07:01:05;;;;;;;9.20;5.90;;;0.80;99.60;;;;;;5033468;28;20491;-60
2021/01/02 07:03:39;;;;;;;9.73;6.13;;;0.90;99.80;;;;;;5029591;28;20425;-60
2021/01/02 07:06:34;;;;;;;8.57;5.60;;;0.90;99.80;;;;;;5013994;28;20420;-60
2021/01/02 07:08:59;;;;;;;10.37;5.33;;;0.90;99.90;;;;;;5022075;28;20518;-59
2021/01/02 07:11:31;;;;;;;7.40;4.97;;;0.90;99.80;;;;;;5033372;28;20447;-59
2021/01/02 07:14:08;;;;;;;7.43;5.10;;;0.90;99.80;;;;;;5029326;28;20212;-59
2021/01/02 07:16:55;;;;;;;7.37;5.10;;;0.90;99.60;;;;;;5032979;28;20458;-60
2021/01/02 07:19:27;;;;;;;9.83;5.70;;;0.90;99.40;;;;;;5032954;28;20494;-60
2021/01/02 07:22:01;;;;;;;8.23;4.77;;;0.80;99.50;;;;;;5032486;28;20428;-60
2021/01/02 07:24:29;;;;;;;7.10;4.77;;;0.80;99.50;;;;;;5023059;28;20512;-60
2021/01/02 07:27:05;;;;;;;6.97;4.87;;;0.80;99.20;;;;;;5030658;28;20451;-60
2021/01/02 07:29:39;;;;;;;7.37;4.67;;;0.80;99.30;;;;;;5010289;28;20420;-60
2021/01/02 07:32:15;;;;;;;8.97;5.43;;;0.80;99.20;;;;;;5016485;28;20532;-60
2021/01/02 07:34:43;;;;;;;6.70;4.50;;;0.80;99.30;;;;;;5031736;28;20463;-60
2021/01/02 07:37:13;;;;;;;7.20;4.80;;;0.70;99.00;;;;;;5046592;28;20463;-60
2021/01/02 07:39:39;;;;;;;10.67;5.87;;;0.70;99.20;;;;;;5026008;28;20437;-60
2021/01/02 07:42:07;;;;;;;8.83;5.30;;;0.80;99.40;;;;;;5028281;28;20945;-60
2021/01/02 07:44:34;;;;;;;8.10;4.90;;;0.70;99.20;;;;;;5030678;28;20463;-61
2021/01/02 07:47:01;;;;;;;8.87;4.97;;;0.70;99.10;;;;;;5031376;28;21065;-60
2021/01/02 07:49:27;;;;;;;8.93;5.10;;;0.80;99.50;;;;;;5018123;28;20559;-60
2021/01/02 07:51:52;;;;;;;8.63;4.83;;;0.70;99.30;;;;;;5019209;28;20572;-59
2021/01/02 07:54:35;;;;;;;8.17;5.20;;;0.70;99.30;;;;;;5027513;28;20592;-60
2021/01/02 07:57:06;;;;;;;8.90;5.43;;;0.70;99.50;;;;;;5023155;28;20267;-58
2021/01/02 07:59:36;;;;;;;11.83;5.60;;;0.80;99.60;;;;;;5020810;28;20448;-61
2021/01/02 08:02:07;;;;;;;9.33;5.10;;;0.80;99.40;;;;;;5032036;28;20971;-61
2021/01/02 08:04:33;;;;;;;7.50;4.70;;;0.80;99.40;;;;;;5048210;28;20459;-61
2021/01/02 08:07:02;;;;;;;13.20;5.77;;;0.80;99.40;;;;;;5036585;28;20858;-59
2021/01/02 08:09:29;;;;;;;12.20;5.30;;;0.80;99.40;;;;;;5031457;28;20490;-59
2021/01/02 08:11:58;;;;;;;7.63;5.33;;;0.80;99.30;;;;;;5026559;28;20440;-61
2021/01/02 08:14:27;;;;;;;8.67;5.33;;;0.80;99.20;;;;;;5025396;28;20457;-60
2021/01/02 08:17:01;;;;;;;9.10;5.63;;;0.80;99.30;;;;;;5020697;28;20474;-60
2021/01/02 08:19:32;;;;;;;9.43;5.37;;;0.80;99.40;;;;;;5018637;28;20432;-61
2021/01/02 08:21:59;;;;;;;8.23;5.77;;;0.80;99.40;;;;;;5021543;28;20482;-58
2021/01/02 08:24:24;;;;;;;8.47;5.73;;;0.80;99.30;;;;;;5017164;28;21858;-60
2021/01/02 08:26:50;;;;;;;8.60;5.37;;;0.80;99.40;;;;;;5021461;28;20952;-60
2021/01/02 08:29:16;;;;;;;8.73;5.67;;;0.80;99.30;;;;;;5019003;28;20446;-60
2021/01/02 08:31:49;;;;;;;8.67;5.23;;;0.80;99.30;;;;;;5022556;28;20444;-59
2021/01/02 08:34:24;;;;;;;9.03;5.53;;;0.90;99.30;;;;;;5016445;28;20460;-59
2021/01/02 08:36:50;;;;;;;8.53;5.57;;;0.90;99.40;;;;;;5018623;28;20466;-59
2021/01/02 08:39:19;;;;;;;9.40;5.67;;;0.90;99.10;;;;;;5022307;28;20964;-59
2021/01/02 08:41:56;;;;;;;8.00;5.50;;;0.90;99.20;;;;;;5024326;28;20432;-59
2021/01/02 08:44:28;;;;;;;8.50;5.70;;;1.00;99.10;;;;;;5021602;28;20482;-59
2021/01/02 08:46:54;;;;;;;10.27;6.07;;;1.00;98.90;;;;;;5019629;28;20436;-60
2021/01/02 08:49:41;;;;;;;10.10;6.07;;;1.00;99.00;;;;;;5016420;28;20440;-58
2021/01/02 08:52:24;;;;;;;11.50;6.67;;;1.00;99.00;;;;;;5029504;28;20443;-60
2021/01/02 08:57:47;;;;;;;12.00;6.07;;;1.10;98.80;;;;;;5020166;28;20833;-63
2021/01/02 09:00:15;;;;;;;11.70;6.60;;;1.10;98.80;;;;;;5020166;28;20467;-62
2021/01/02 09:02:44;;;;;;;10.67;6.10;;;1.10;98.70;;;;;;5016519;28;20436;-61
2021/01/02 09:05:26;;;;;;;12.60;6.50;;;1.20;98.80;;;;;;5016343;28;20582;-62
2021/01/02 09:08:07;;;;;;;10.60;5.70;;;1.20;98.70;;;;;;5017144;28;20966;-60
2021/01/02 09:10:44;;;;;;;11.33;6.50;;;1.20;98.40;;;;;;5017699;28;20441;-61
2021/01/02 09:13:25;;;;;;;9.00;5.90;;;1.20;98.30;;;;;;5017293;28;20423;-62
2021/01/02 09:15:50;;;;;;;11.83;6.47;;;1.20;98.40;;;;;;5023189;28;20476;-62
2021/01/02 09:18:38;;;;;;;10.90;6.57;;;1.20;98.40;;;;;;5021394;28;20451;-61
2021/01/02 09:21:09;;;;;;;9.00;5.83;;;1.10;98.50;;;;;;5017242;28;20174;-61
2021/01/02 09:23:39;;;;;;;9.97;5.73;;;1.20;98.60;;;;;;5021283;28;20424;-61
2021/01/02 09:26:24;;;;;;;11.50;6.80;;;1.10;98.60;;;;;;5023309;28;20449;-61
2021/01/02 09:28:51;;;;;;;10.70;6.07;;;1.10;98.20;;;;;;5021757;28;20436;-62
2021/01/02 09:31:18;;;;;;;11.40;6.67;;;1.10;98.40;;;;;;5019900;28;20438;-61
2021/01/02 09:33:47;;;;;;;11.27;6.70;;;1.10;98.40;;;;;;5020768;28;20462;-61
2021/01/02 09:36:14;;;;;;;14.30;7.03;;;1.10;98.40;;;;;;5021358;28;20472;-61
2021/01/02 09:38:44;;;;;;;9.00;5.73;;;1.10;98.50;;;;;;5017070;28;20914;-61
2021/01/02 09:41:12;;;;;;;8.57;5.40;;;1.20;98.30;;;;;;5005392;28;20432;-60
2021/01/02 09:43:38;;;;;;;9.87;5.13;;;1.10;98.00;;;;;;5027907;28;20744;-61
2021/01/02 09:46:04;;;;;;;8.77;5.50;;;1.10;98.20;;;;;;5028700;28;20936;-61
2021/01/02 09:48:30;;;;;;;8.47;5.43;;;1.00;98.20;;;;;;5026018;28;20531;-61
2021/01/02 09:50:56;;;;;;;9.30;5.10;;;1.10;98.20;;;;;;5022286;28;20449;-62
2021/01/02 09:53:21;;;;;;;9.33;4.77;;;1.10;98.40;;;;;;5021749;28;20436;-61
2021/01/02 09:55:47;;;;;;;9.07;5.53;;;1.10;98.50;;;;;;5019894;28;20217;-61
2021/01/02 09:58:13;;;;;;;8.17;5.20;;;1.10;98.50;;;;;;5028182;28;20264;-63
2021/01/02 10:00:42;;;;;;;7.47;4.80;;;1.00;98.40;;;;;;5021286;28;20444;-64
2021/01/02 10:03:10;;;;;;;8.43;4.93;;;1.00;98.40;;;;;;5028668;28;20525;-64
2021/01/02 10:05:36;;;;;;;6.53;4.63;;;1.00;98.40;;;;;;5032532;28;20878;-63
2021/01/02 10:08:05;;;;;;;5.53;4.50;;;1.00;98.40;;;;;;5023412;28;20440;-64
2021/01/02 10:10:32;;;;;;;6.40;4.13;;;1.00;98.20;;;;;;5024931;28;20468;-63
2021/01/02 10:12:57;;;;;;;7.60;4.77;;;1.00;98.20;;;;;;5027699;28;20864;-61
2021/01/02 10:15:23;;;;;;;6.97;4.97;;;1.00;98.00;;;;;;5021170;28;20507;-63
2021/01/02 10:17:50;;;;;;;7.20;4.27;;;0.90;97.70;;;;;;5021942;28;20784;-62
2021/01/02 10:20:18;;;;;;;6.53;4.10;;;0.90;97.80;;;;;;5019406;28;20261;-64
2021/01/02 10:22:44;;;;;;;6.80;4.33;;;0.90;98.10;;;;;;5019990;28;20956;-64
2021/01/02 10:25:12;;;;;;;7.00;4.20;;;1.00;98.00;;;;;;5021951;28;20484;-63
2021/01/02 10:27:38;;;;;;;6.73;4.50;;;1.00;97.90;;;;;;5021494;28;20209;-63
2021/01/02 10:30:07;;;;;;;6.40;4.53;;;1.10;97.80;;;;;;5019802;28;20469;-63
2021/01/02 10:32:33;;;;;;;7.63;4.50;;;1.10;97.50;;;;;;5017835;28;20280;-64
2021/01/02 10:34:59;;;;;;;6.27;4.87;;;1.10;97.20;;;;;;5015598;28;20445;-69
2021/01/02 10:37:28;;;;;;;4.67;3.60;;;1.10;97.40;;;;;;5024018;28;20498;-65
2021/01/02 10:39:55;;;;;;;5.60;3.87;;;1.20;97.40;;;;;;5017797;28;20268;-66
2021/01/02 10:42:27;;;;;;;5.50;3.93;;;1.20;97.30;;;;;;5025350;28;20443;-64
2021/01/02 10:44:53;;;;;;;5.13;3.90;;;1.20;97.00;;;;;;5022902;28;20437;-64
2021/01/02 10:47:25;;;;;;;6.50;4.40;;;1.20;97.00;;;;;;5027248;28;20455;-65
2021/01/02 10:49:51;;;;;;;9.10;5.13;;;1.20;97.00;;;;;;5028369;28;20193;-66
2021/01/02 10:52:22;;;;;;;5.40;3.67;;;1.30;96.90;;;;;;5031464;28;20474;-63
2021/01/02 10:54:49;;;;;;;6.53;4.00;;;1.30;96.80;;;;;;5017136;28;20951;-61
2021/01/02 10:57:16;;;;;;;5.10;3.80;;;1.40;96.80;;;;;;5015126;28;21668;-63
2021/01/02 10:59:47;;;;;;;5.80;3.60;;;1.40;96.60;;;;;;5030229;28;20432;-64
2021/01/02 11:02:14;;;;;;;7.53;4.60;;;1.30;96.50;;;;;;5028706;28;20432;-63
2021/01/02 11:04:40;;;;;;;5.20;4.13;;;1.30;96.40;;;;;;5030899;28;20456;-63
2021/01/02 11:07:06;;;;;;;4.90;3.90;;;1.20;96.40;;;;;;5032349;28;20470;-63
2021/01/02 11:09:33;;;;;;;7.20;4.20;;;1.20;96.50;;;;;;5020353;28;20468;-63
2021/01/02 11:11:59;;;;;;;5.57;4.17;;;1.20;96.40;;;;;;5016432;28;20428;-64
2021/01/02 11:14:25;;;;;;;5.50;4.07;;;1.10;96.60;;;;;;5037827;28;20435;-62
2021/01/02 11:16:51;;;;;;;7.00;4.13;;;1.10;96.50;;;;;;5029802;28;20982;-63
2021/01/02 11:19:19;;;;;;;5.10;4.20;;;1.10;96.60;;;;;;5019857;28;20444;-63
2021/01/02 11:21:46;;;;;;;6.57;4.37;;;1.10;96.60;;;;;;5017103;28;21007;-63
2021/01/02 11:24:14;;;;;;;7.50;4.63;;;1.10;96.60;;;;;;5031422;28;20421;-68
2021/01/02 11:26:46;;;;;;;7.10;4.20;;;1.10;96.80;;;;;;5029642;28;20535;-63
2021/01/02 11:29:14;;;;;;;6.17;4.10;;;1.10;96.60;;;;;;5024873;28;20495;-66
2021/01/02 11:31:39;;;;;;;6.10;3.70;;;1.10;96.50;;;;;;5028585;28;20506;-63
2021/01/02 11:34:06;;;;;;;4.83;3.47;;;1.10;96.20;;;;;;5028861;28;20494;-62
2021/01/02 11:36:32;;;;;;;5.83;4.10;;;1.10;96.00;;;;;;5029192;28;20479;-63
2021/01/02 11:38:59;;;;;;;6.80;3.90;;;1.00;96.00;;;;;;5029341;28;20471;-69
2021/01/02 11:41:37;;;;;;;5.53;3.50;;;1.00;96.20;;;;;;5027664;28;20451;-64
2021/01/02 11:44:04;;;;;;;4.10;3.47;;;1.00;96.10;;;;;;5027575;28;20432;-66
2021/01/02 11:46:35;;;;;;;6.00;3.70;;;1.00;96.10;;;;;;5030708;28;20462;-63
2021/01/02 11:49:01;;;;;;;4.83;3.60;;;1.10;96.20;;;;;;5029366;28;20844;-64
2021/01/02 11:51:27;;;;;;;4.23;3.17;;;1.10;96.20;;;;;;5026335;28;20459;-64
2021/01/02 11:53:53;;;;;;;3.97;3.23;;;1.10;96.20;;;;;;5026760;28;20436;-65
2021/01/02 11:56:22;;;;;;;4.93;3.10;;;1.20;96.20;;;;;;5024900;28;20209;-63
2021/01/02 11:58:51;;;;;;;5.87;4.00;;;1.20;95.80;;;;;;5024509;28;20186;-65
2021/01/02 12:01:17;;;;;;;6.50;3.63;;;1.20;95.70;;;;;;5027180;28;20519;-63
2021/01/02 12:03:44;;;;;;;7.00;3.20;;;1.20;95.60;;;;;;5026535;28;20515;-63
2021/01/02 12:06:09;;;;;;;7.13;3.93;;;1.30;95.40;;;;;;5031342;28;20535;-63
2021/01/02 12:08:35;;;;;;;4.30;2.90;;;1.30;94.90;;;;;;5026999;28;20523;-64
2021/01/02 12:11:01;;;;;;;4.70;3.40;;;1.40;95.00;;;;;;5028386;28;20425;-67
2021/01/02 12:13:26;;;;;;;4.40;3.37;;;1.40;94.80;;;;;;5027288;28;20698;-64
2021/01/02 12:15:52;;;;;;;3.60;2.90;;;1.40;94.80;;;;;;5027064;28;20225;-64
2021/01/02 12:18:19;;;;;;;5.23;3.30;;;1.50;94.60;;;;;;5029977;28;20189;-61
2021/01/02 12:20:46;;;;;;;3.43;2.73;;;1.50;94.60;;;;;;5035703;28;20189;-63
2021/01/02 12:23:12;;;;;;;3.93;2.60;;;1.60;94.70;;;;;;5026131;28;20946;-64
2021/01/02 12:25:38;;;;;;;3.17;2.63;;;1.60;94.00;;;;;;5030995;28;20495;-64
2021/01/02 12:28:04;;;;;;;3.70;2.93;;;1.60;93.50;;;;;;5024518;28;20544;-64
2021/01/02 12:30:30;;;;;;;4.43;2.80;;;1.60;92.80;;;;;;5022027;28;20196;-67
2021/01/02 12:32:57;;;;;;;12.00;6.07;;;1.60;93.10;;;;;;5026347;28;20454;-66
2021/01/02 12:35:24;;;;;;;3.33;2.90;;;1.60;92.90;;;;;;5029111;28;20237;-69
2021/01/02 12:37:49;;;;;;;2.97;2.43;;;1.60;93.20;;;;;;5028517;28;20416;-67
2021/01/02 12:40:16;;;;;;;4.10;3.07;;;1.60;93.20;;;;;;5028339;28;20819;-63
2021/01/02 12:42:41;;;;;;;3.13;2.70;;;1.50;93.00;;;;;;5028970;28;20186;-63
2021/01/02 12:45:09;;;;;;;3.90;2.80;;;1.50;92.60;;;;;;5029775;28;20471;-64
2021/01/02 12:47:35;;;;;;;2.67;2.47;;;1.50;92.50;;;;;;5029108;28;20652;-67
2021/01/02 12:50:01;;;;;;;3.10;2.50;;;1.50;92.30;;;;;;5019890;28;20444;-62
2021/01/02 12:52:30;;;;;;;5.13;3.40;;;1.40;92.00;;;;;;5029067;28;20197;-64
2021/01/02 12:54:56;;;;;;;6.53;3.07;;;1.40;91.80;;;;;;5030930;28;20678;-61
2021/01/02 12:57:23;;;;;;;3.70;2.70;;;1.40;92.10;;;;;;5027350;28;22121;-66
2021/01/02 12:59:53;;;;;;;6.30;3.30;;;1.30;92.30;;;;;;5025807;28;20428;-63
2021/01/02 13:02:20;;;;;;;2.70;2.50;;;1.30;92.70;;;;;;5017063;28;21028;-67
2021/01/02 13:04:46;;;;;;;4.37;2.80;;;1.30;92.70;;;;;;5017613;28;20440;-65
2021/01/02 13:07:13;;;;;;;3.70;2.77;;;1.30;93.00;;;;;;5015950;28;20432;-65
2021/01/02 13:09:39;;;;;;;2.83;2.63;;;1.30;92.90;;;;;;5019683;28;20432;-64
2021/01/02 13:12:07;;;;;;;3.70;2.90;;;1.30;92.30;;;;;;5016778;28;20452;-59
2021/01/02 13:14:33;;;;;;;4.83;3.07;;;1.20;92.20;;;;;;5012302;28;20430;-66